createdAt,value
2023-05-25T00:00:13.484Z,5.23
2023-05-25T00:02:40.237Z,5.50
2023-05-25T00:05:09.144Z,5.43
2023-05-25T00:07:35.807Z,5.27
2023-05-25T00:10:02.584Z,5.90
2023-05-25T00:12:29.201Z,5.57
2023-05-25T00:14:56.085Z,5.27
2023-05-25T00:17:24.283Z,5.47
2023-05-25T00:19:51.498Z,5.83
2023-05-25T00:22:18.227Z,5.50
2023-05-25T00:24:44.946Z,5.40
2023-05-25T00:27:11.608Z,4.93
2023-05-25T00:29:38.219Z,5.03
2023-05-25T00:32:05.466Z,4.90
2023-05-25T00:34:32.058Z,5.50
2023-05-25T00:36:58.706Z,5.70
2023-05-25T00:39:25.398Z,5.27
2023-05-25T00:41:52.049Z,5.00
2023-05-25T00:44:21.706Z,5.27
2023-05-25T00:46:50.750Z,5.27
2023-05-25T00:49:19.123Z,5.00
2023-05-25T00:51:47.722Z,5.07
2023-05-25T00:54:15.965Z,5.00
2023-05-25T00:56:56.081Z,4.80
2023-05-25T00:59:29.535Z,5.27
2023-05-25T01:01:59.105Z,5.43
2023-05-25T01:04:30.097Z,4.57
2023-05-25T01:06:57.972Z,5.87
2023-05-25T01:09:30.845Z,5.20
2023-05-25T01:12:01.274Z,4.93
2023-05-25T01:14:28.717Z,4.87
2023-05-25T01:16:59.113Z,5.40
2023-05-25T01:19:25.880Z,5.27
2023-05-25T01:22:04.932Z,4.83
2023-05-25T01:24:46.353Z,5.40
2023-05-25T01:27:39.540Z,5.53
2023-05-25T01:30:14.342Z,5.27
2023-05-25T01:32:45.661Z,5.30
2023-05-25T01:35:13.481Z,5.47
2023-05-25T01:37:49.419Z,5.50
2023-05-25T01:40:16.364Z,4.70
2023-05-25T01:42:43.093Z,4.93
2023-05-25T01:45:12.442Z,5.37
2023-05-25T01:47:57.529Z,5.17
2023-05-25T01:50:36.421Z,5.40
2023-05-25T01:53:04.761Z,5.10
2023-05-25T01:55:43.335Z,5.50
2023-05-25T01:58:11.995Z,4.87
2023-05-25T02:00:40.621Z,5.30
2023-05-25T02:03:10.170Z,5.27
2023-05-25T02:05:37.834Z,4.90
2023-05-25T02:08:07.374Z,5.23
2023-05-25T02:10:34.023Z,5.27
2023-05-25T02:13:00.705Z,5.40
2023-05-25T02:15:32.528Z,5.73
2023-05-25T02:18:02.994Z,4.93
2023-05-25T02:20:29.861Z,5.40
2023-05-25T02:22:56.529Z,5.57
2023-05-25T02:25:23.183Z,5.27
2023-05-25T02:27:50.685Z,5.80
2023-05-25T02:30:17.401Z,5.43
2023-05-25T02:32:44.223Z,5.27
2023-05-25T02:35:10.894Z,5.37
2023-05-25T02:37:37.668Z,5.50
2023-05-25T02:40:05.781Z,5.73
2023-05-25T02:42:32.501Z,5.33
2023-05-25T02:44:59.132Z,6.03
2023-05-25T02:47:26.153Z,6.27
2023-05-25T02:49:52.793Z,4.87
2023-05-25T02:52:19.444Z,5.80
2023-05-25T02:54:46.041Z,6.00
2023-05-25T02:57:12.632Z,5.80
2023-05-25T02:59:39.216Z,5.47
2023-05-25T03:02:06.184Z,5.53
2023-05-25T03:04:34.332Z,6.20
2023-05-25T03:07:01.746Z,5.37
2023-05-25T03:09:28.871Z,5.70
2023-05-25T03:11:55.696Z,6.17
2023-05-25T03:14:22.602Z,6.20
2023-05-25T03:16:50.427Z,6.50
2023-05-25T03:19:20.434Z,6.10
2023-05-25T03:21:47.521Z,5.90
2023-05-25T03:24:14.226Z,6.23
2023-05-25T03:26:40.864Z,6.57
2023-05-25T03:29:07.526Z,6.33
2023-05-25T03:31:34.258Z,6.20
2023-05-25T03:34:00.870Z,6.60
2023-05-25T03:36:27.535Z,6.13
2023-05-25T03:38:54.804Z,6.37
2023-05-25T03:41:21.879Z,6.67
2023-05-25T03:43:48.482Z,7.37
2023-05-25T03:46:15.136Z,6.97
2023-05-25T03:48:41.867Z,6.80
2023-05-25T03:51:08.543Z,6.70
2023-05-25T03:53:35.167Z,6.40
2023-05-25T03:56:01.779Z,6.67
2023-05-25T03:58:28.418Z,7.47
2023-05-25T04:00:56.165Z,6.13
2023-05-25T04:03:23.140Z,7.50
2023-05-25T04:05:50.123Z,6.80
2023-05-25T04:08:19.893Z,7.40
2023-05-25T04:10:47.197Z,6.47
2023-05-25T04:13:14.134Z,7.10
2023-05-25T04:15:40.799Z,7.47
2023-05-25T04:18:07.501Z,7.13
2023-05-25T04:20:34.161Z,7.60
2023-05-25T04:23:00.837Z,7.73
2023-05-25T04:25:29.514Z,6.70
2023-05-25T04:27:56.770Z,7.90
2023-05-25T04:30:23.817Z,7.03
2023-05-25T04:32:50.604Z,7.17
2023-05-25T04:35:20.775Z,7.90
2023-05-25T04:37:48.329Z,8.20
2023-05-25T04:40:14.969Z,8.70
2023-05-25T04:42:41.920Z,7.63
2023-05-25T04:45:10.527Z,8.60
2023-05-25T04:47:40.941Z,8.00
2023-05-25T04:50:10.037Z,8.23
2023-05-25T04:52:36.784Z,8.93
2023-05-25T04:55:03.550Z,9.20
2023-05-25T04:57:31.459Z,8.73
2023-05-25T04:59:58.695Z,8.00
2023-05-25T05:02:28.345Z,8.30
2023-05-25T05:04:55.148Z,8.70
2023-05-25T05:07:22.202Z,8.47
2023-05-25T05:09:49.409Z,8.40
2023-05-25T05:12:16.106Z,8.93
2023-05-25T05:14:42.789Z,8.77
2023-05-25T05:17:09.441Z,8.70
2023-05-25T05:19:36.253Z,8.77
2023-05-25T05:22:02.875Z,8.33
2023-05-25T05:24:29.477Z,8.27
2023-05-25T05:26:58.956Z,8.77
2023-05-25T05:29:28.110Z,8.37
2023-05-25T05:31:55.913Z,8.50
2023-05-25T05:34:22.628Z,8.23
2023-05-25T05:36:57.153Z,8.70
2023-05-25T05:39:25.259Z,8.20
2023-05-25T05:41:52.029Z,7.77
2023-05-25T05:44:20.502Z,8.47
2023-05-25T05:46:47.275Z,8.43
2023-05-25T05:49:13.975Z,7.73
2023-05-25T05:51:40.622Z,8.67
2023-05-25T05:54:07.263Z,8.43
2023-05-25T05:56:33.893Z,8.33
2023-05-25T05:59:00.668Z,8.57
2023-05-25T06:01:27.269Z,8.40
2023-05-25T06:03:54.801Z,8.23
2023-05-25T06:06:21.664Z,7.63
2023-05-25T06:08:48.369Z,7.50
2023-05-25T06:11:15.019Z,8.10
2023-05-25T06:13:41.643Z,7.97
2023-05-25T06:16:08.374Z,8.10
2023-05-25T06:18:35.046Z,8.85
2023-05-25T06:21:02.438Z,7.28
2023-05-25T06:23:29.089Z,7.70
2023-05-25T06:25:55.819Z,7.50
2023-05-25T06:28:22.432Z,7.93
2023-05-25T06:30:49.164Z,7.33
2023-05-25T06:33:15.877Z,7.57
2023-05-25T06:35:42.798Z,7.40
2023-05-25T06:38:09.632Z,6.75
2023-05-25T06:40:36.247Z,7.03
2023-05-25T06:43:02.999Z,6.88
2023-05-25T06:45:29.595Z,6.75
2023-05-25T06:47:56.324Z,6.63
2023-05-25T06:50:23.059Z,6.75
2023-05-25T06:52:49.666Z,6.05
2023-05-25T06:55:16.557Z,5.63
2023-05-25T06:57:43.828Z,6.00
2023-05-25T07:00:12.179Z,5.70
2023-05-25T07:02:39.500Z,5.68
2023-05-25T07:05:06.568Z,6.45
2023-05-25T07:07:33.354Z,5.68
2023-05-25T07:10:00.014Z,6.20
2023-05-25T07:12:26.628Z,5.80
2023-05-25T07:14:53.279Z,5.65
2023-05-25T07:17:20.200Z,6.30
2023-05-25T07:19:48.700Z,5.18
2023-05-25T07:22:18.866Z,5.50
2023-05-25T07:24:46.857Z,5.28
2023-05-25T07:27:14.492Z,5.57
2023-05-25T07:29:41.203Z,4.93
2023-05-25T07:32:08.213Z,5.13
2023-05-25T07:34:35.244Z,4.45
2023-05-25T07:37:01.936Z,4.72
2023-05-25T07:39:28.771Z,4.38
2023-05-25T07:41:55.575Z,4.20
2023-05-25T07:44:22.258Z,4.03
2023-05-25T07:46:48.969Z,4.10
2023-05-25T07:49:18.521Z,3.85
2023-05-25T07:51:45.745Z,3.78
2023-05-25T07:54:12.728Z,4.35
2023-05-25T07:56:39.564Z,5.28
2023-05-25T07:59:06.447Z,4.90
2023-05-25T08:01:33.143Z,4.60
2023-05-25T08:04:00.266Z,4.22
2023-05-25T08:06:27.121Z,4.10
2023-05-25T08:08:53.789Z,3.70
2023-05-25T08:11:24.598Z,4.22
2023-05-25T08:13:51.335Z,4.30
2023-05-25T08:16:18.974Z,4.32
2023-05-25T08:18:46.929Z,3.55
2023-05-25T08:21:14.244Z,3.50
2023-05-25T08:23:42.344Z,3.75
2023-05-25T08:26:29.001Z,6.32
2023-05-25T08:28:58.978Z,3.67
2023-05-25T08:31:25.628Z,4.10
2023-05-25T08:33:52.273Z,3.85
2023-05-25T08:36:18.937Z,3.58
2023-05-25T08:38:45.879Z,4.15
2023-05-25T08:41:13.504Z,4.05
2023-05-25T08:43:42.589Z,3.65
2023-05-25T08:46:09.610Z,3.70
2023-05-25T08:48:41.935Z,3.65
2023-05-25T08:51:13.256Z,3.83
2023-05-25T08:53:41.453Z,3.78
2023-05-25T08:56:19.162Z,3.45
2023-05-25T08:58:53.025Z,4.68
2023-05-25T09:01:23.020Z,3.53
2023-05-25T09:03:51.441Z,3.80
2023-05-25T09:06:18.410Z,4.28
2023-05-25T09:08:45.488Z,4.03
2023-05-25T09:11:16.543Z,4.25
2023-05-25T09:13:44.287Z,3.50
2023-05-25T09:16:11.283Z,5.00
2023-05-25T09:18:38.305Z,4.20
2023-05-25T09:21:05.009Z,3.90
2023-05-25T09:23:32.267Z,3.85
2023-05-25T09:25:59.559Z,4.93
2023-05-25T09:28:27.564Z,4.15
2023-05-25T09:30:55.904Z,4.18
2023-05-25T09:33:22.681Z,4.18
2023-05-25T09:35:49.450Z,3.75
2023-05-25T09:38:17.149Z,3.97
2023-05-25T09:40:44.830Z,4.05
2023-05-25T09:43:17.204Z,3.72
2023-05-25T09:45:49.009Z,4.57
2023-05-25T09:48:15.860Z,5.07
2023-05-25T09:50:43.114Z,4.90
2023-05-25T09:53:10.969Z,5.15
2023-05-25T09:55:52.000Z,4.32
2023-05-25T09:58:23.715Z,4.57
2023-05-25T10:00:54.540Z,4.55
2023-05-25T10:03:21.706Z,4.35
2023-05-25T10:05:49.063Z,4.35
2023-05-25T10:08:19.753Z,4.15
2023-05-25T10:10:47.686Z,4.53
2023-05-25T10:13:16.331Z,4.28
2023-05-25T10:15:45.640Z,4.20
2023-05-25T10:18:15.610Z,4.22
2023-05-25T10:20:43.981Z,4.00
2023-05-25T10:23:14.557Z,4.30
2023-05-25T10:25:44.859Z,3.90
2023-05-25T10:28:19.659Z,4.47
2023-05-25T10:30:47.490Z,4.25
2023-05-25T10:33:14.225Z,5.07
2023-05-25T10:36:01.704Z,4.57
2023-05-25T10:38:31.525Z,4.80
2023-05-25T10:40:59.929Z,5.22
2023-05-25T10:43:27.383Z,4.53
2023-05-25T10:45:55.604Z,4.30
2023-05-25T10:48:23.639Z,4.38
2023-05-25T10:50:51.594Z,4.13
2023-05-25T10:53:23.394Z,4.85
2023-05-25T10:56:02.885Z,4.35
2023-05-25T10:58:30.913Z,4.30
2023-05-25T11:00:59.846Z,4.40
2023-05-25T11:03:45.323Z,4.18
2023-05-25T11:06:17.028Z,4.82
2023-05-25T11:09:00.166Z,4.15
2023-05-25T11:11:42.052Z,4.40
2023-05-25T11:14:30.326Z,4.05
2023-05-25T11:17:14.790Z,4.00
2023-05-25T11:19:51.033Z,4.20
2023-05-25T11:22:20.438Z,4.63
2023-05-25T11:24:51.992Z,5.05
2023-05-25T11:27:27.547Z,4.47
2023-05-25T11:29:56.524Z,5.05
2023-05-25T11:32:23.672Z,4.47
2023-05-25T11:34:54.013Z,4.38
2023-05-25T11:37:24.643Z,4.43
2023-05-25T11:39:52.389Z,4.28
2023-05-25T11:42:24.192Z,3.90
2023-05-25T11:44:51.256Z,4.60
2023-05-25T11:47:22.972Z,4.10
2023-05-25T11:49:50.103Z,4.18
2023-05-25T11:52:18.213Z,4.82
2023-05-25T11:54:45.832Z,4.72
2023-05-25T11:57:25.016Z,4.57
2023-05-25T11:59:54.117Z,4.60
2023-05-25T12:02:21.777Z,4.55
2023-05-25T12:05:01.342Z,4.30
2023-05-25T12:07:29.926Z,4.32
2023-05-25T12:10:08.294Z,4.45
2023-05-25T12:12:46.081Z,4.65
2023-05-25T12:15:20.949Z,4.57
2023-05-25T12:17:48.676Z,4.65
2023-05-25T12:20:17.114Z,4.68
2023-05-25T12:22:44.972Z,5.43
2023-05-25T12:25:13.248Z,5.20
2023-05-25T12:27:43.703Z,5.13
2023-05-25T12:30:11.715Z,5.70
2023-05-25T12:33:03.351Z,5.45
2023-05-25T12:35:43.953Z,6.28
2023-05-25T12:38:17.226Z,6.13
2023-05-25T12:40:44.753Z,5.93
2023-05-25T12:43:12.110Z,5.70
2023-05-25T12:45:42.825Z,5.55
2023-05-25T12:48:09.914Z,5.10
2023-05-25T12:50:41.336Z,5.65
2023-05-25T12:53:08.220Z,6.03
2023-05-25T12:55:35.663Z,5.00
2023-05-25T12:58:05.454Z,5.40
2023-05-25T13:00:39.921Z,5.72
2023-05-25T13:03:07.719Z,5.45
2023-05-25T13:05:37.686Z,4.43
2023-05-25T13:08:06.011Z,4.82
2023-05-25T13:10:33.175Z,4.72
2023-05-25T13:12:59.892Z,4.63
2023-05-25T13:15:27.247Z,5.10
2023-05-25T13:17:58.168Z,4.68
2023-05-25T13:20:26.680Z,4.60
2023-05-25T13:22:55.675Z,5.03
2023-05-25T13:25:22.790Z,4.28
2023-05-25T13:27:51.914Z,4.85
2023-05-25T13:30:20.789Z,4.43
2023-05-25T13:32:49.505Z,4.10
2023-05-25T13:35:36.459Z,4.65
2023-05-25T13:38:03.547Z,4.60
2023-05-25T13:40:30.201Z,4.15
2023-05-25T13:42:56.844Z,4.53
2023-05-25T13:45:23.490Z,4.82
2023-05-25T13:47:50.337Z,5.10
2023-05-25T13:50:17.108Z,5.03
2023-05-25T13:52:43.745Z,4.97
2023-05-25T13:55:10.450Z,4.50
2023-05-25T13:57:37.689Z,4.97
2023-05-25T14:00:05.752Z,5.25
2023-05-25T14:02:34.068Z,5.07
2023-05-25T14:05:00.966Z,5.57
2023-05-25T14:07:27.628Z,5.22
2023-05-25T14:09:54.232Z,5.53
2023-05-25T14:12:20.828Z,4.95
2023-05-25T14:14:47.419Z,5.13
2023-05-25T14:17:14.094Z,5.97
2023-05-25T14:19:40.771Z,5.80
2023-05-25T14:22:14.102Z,6.15
2023-05-25T14:24:41.818Z,5.47
2023-05-25T14:27:08.813Z,5.68
2023-05-25T14:29:35.473Z,5.32
2023-05-25T14:32:02.229Z,4.82
2023-05-25T14:34:29.481Z,5.80
2023-05-25T14:36:56.209Z,5.20
2023-05-25T14:39:22.945Z,5.55
2023-05-25T14:41:49.582Z,5.78
2023-05-25T14:44:16.511Z,5.70
2023-05-25T14:46:43.243Z,5.32
2023-05-25T14:49:10.183Z,5.50
2023-05-25T14:51:37.858Z,5.25
2023-05-25T14:54:06.291Z,5.40
2023-05-25T14:56:33.127Z,5.72
2023-05-25T14:58:59.714Z,5.28
2023-05-25T15:01:26.421Z,5.10
2023-05-25T15:03:53.242Z,5.50
2023-05-25T15:06:19.937Z,5.63
2023-05-25T15:08:46.610Z,5.22
2023-05-25T15:11:13.342Z,5.30
2023-05-25T15:13:41.045Z,5.72
2023-05-25T15:16:11.682Z,5.47
2023-05-25T15:18:38.490Z,5.35
2023-05-25T15:21:05.592Z,5.00
2023-05-25T15:23:32.355Z,4.80
2023-05-25T15:26:04.020Z,4.32
2023-05-25T15:28:31.240Z,4.80
2023-05-25T15:30:59.470Z,5.25
2023-05-25T15:33:39.479Z,4.95
2023-05-25T15:36:10.687Z,5.20
2023-05-25T15:38:37.357Z,5.43
2023-05-25T15:41:04.195Z,5.47
2023-05-25T15:43:30.799Z,5.13
2023-05-25T15:45:59.354Z,5.22
2023-05-25T15:48:26.525Z,5.50
2023-05-25T15:50:53.499Z,5.18
2023-05-25T15:53:20.289Z,5.32
2023-05-25T15:55:47.153Z,5.03
2023-05-25T15:58:13.939Z,4.97
2023-05-25T16:00:40.620Z,4.93
2023-05-25T16:03:07.560Z,4.90
2023-05-25T16:05:34.233Z,5.43
2023-05-25T16:08:00.918Z,5.20
2023-05-25T16:10:27.520Z,5.53
2023-05-25T16:12:54.132Z,4.80
2023-05-25T16:15:22.824Z,4.72
2023-05-25T16:17:49.464Z,4.68
2023-05-25T16:20:16.243Z,4.85
2023-05-25T16:22:43.034Z,4.50
2023-05-25T16:25:09.878Z,4.60
2023-05-25T16:27:36.567Z,4.90
2023-05-25T16:30:03.418Z,5.80
2023-05-25T16:32:30.505Z,5.20
2023-05-25T16:35:00.380Z,4.97
2023-05-25T16:37:27.805Z,4.78
2023-05-25T16:39:54.397Z,4.53
2023-05-25T16:42:21.093Z,4.78
2023-05-25T16:44:47.724Z,5.20
2023-05-25T16:47:14.348Z,5.13
2023-05-25T16:49:40.941Z,4.82
2023-05-25T16:52:07.688Z,5.55
2023-05-25T16:54:34.322Z,5.28
2023-05-25T16:57:02.119Z,4.72
2023-05-25T16:59:28.712Z,5.07
2023-05-25T17:01:55.762Z,4.82
2023-05-25T17:04:22.487Z,5.40
2023-05-25T17:06:49.126Z,4.93
2023-05-25T17:09:15.793Z,5.40
2023-05-25T17:11:42.401Z,5.00
2023-05-25T17:14:09.021Z,5.00
2023-05-25T17:16:35.696Z,5.35
2023-05-25T17:19:02.387Z,5.07
2023-05-25T17:21:29.064Z,5.28
2023-05-25T17:23:55.740Z,5.38
2023-05-25T17:26:22.656Z,5.15
2023-05-25T17:28:49.248Z,5.15
2023-05-25T17:31:16.000Z,4.82
2023-05-25T17:33:43.369Z,4.90
2023-05-25T17:36:10.074Z,5.25
2023-05-25T17:38:38.002Z,4.40
2023-05-25T17:41:04.650Z,4.55
2023-05-25T17:43:31.354Z,4.80
2023-05-25T17:45:59.203Z,4.35
2023-05-25T17:48:25.985Z,4.63
2023-05-25T17:50:52.674Z,4.78
2023-05-25T17:53:19.311Z,5.30
2023-05-25T17:55:46.075Z,6.10
2023-05-25T17:58:12.894Z,4.80
2023-05-25T18:00:40.094Z,4.95
2023-05-25T18:03:10.841Z,4.78
2023-05-25T18:05:37.492Z,4.75
2023-05-25T18:08:05.132Z,4.95
2023-05-25T18:10:32.613Z,4.65
2023-05-25T18:12:59.335Z,4.57
2023-05-25T18:15:26.049Z,5.00
2023-05-25T18:17:52.754Z,4.25
2023-05-25T18:20:20.001Z,4.85
2023-05-25T18:22:49.362Z,4.60
2023-05-25T18:25:16.487Z,4.53
2023-05-25T18:27:43.422Z,4.00
2023-05-25T18:30:10.845Z,4.13
2023-05-25T18:32:40.254Z,4.10
2023-05-25T18:35:07.441Z,3.95
2023-05-25T18:37:35.846Z,4.70
2023-05-25T18:40:03.378Z,4.55
2023-05-25T18:42:30.054Z,3.88
2023-05-25T18:44:56.723Z,4.13
2023-05-25T18:47:23.412Z,4.20
2023-05-25T18:49:50.067Z,3.75
2023-05-25T18:52:19.071Z,4.10
2023-05-25T18:54:46.384Z,4.63
2023-05-25T18:57:13.013Z,3.90
2023-05-25T18:59:41.481Z,4.05
2023-05-25T19:02:08.190Z,3.80
2023-05-25T19:04:34.871Z,4.05
2023-05-25T19:07:02.467Z,4.28
2023-05-25T19:09:29.073Z,4.32
2023-05-25T19:11:55.709Z,4.22
2023-05-25T19:14:22.406Z,4.40
2023-05-25T19:16:49.301Z,4.78
2023-05-25T19:19:16.109Z,4.07
2023-05-25T19:21:42.764Z,4.22
2023-05-25T19:24:10.007Z,4.55
2023-05-25T19:26:37.872Z,4.50
2023-05-25T19:29:04.655Z,4.50
2023-05-25T19:31:31.314Z,4.15
2023-05-25T19:33:57.957Z,4.43
2023-05-25T19:36:24.588Z,5.28
2023-05-25T19:38:51.247Z,5.57
2023-05-25T19:41:17.999Z,4.70
2023-05-25T19:43:44.726Z,4.80
2023-05-25T19:46:11.508Z,4.47
2023-05-25T19:48:41.147Z,5.05
2023-05-25T19:51:08.520Z,5.25
2023-05-25T19:53:35.237Z,5.03
2023-05-25T19:56:03.150Z,4.53
2023-05-25T19:58:29.857Z,4.57
2023-05-25T20:00:56.825Z,5.00
2023-05-25T20:03:23.767Z,3.88
2023-05-25T20:05:50.497Z,3.90
2023-05-25T20:08:17.228Z,4.03
2023-05-25T20:10:45.049Z,4.32
2023-05-25T20:13:12.538Z,4.10
2023-05-25T20:15:39.221Z,3.40
2023-05-25T20:18:05.902Z,4.40
2023-05-25T20:20:32.706Z,4.18
2023-05-25T20:22:59.492Z,4.10
2023-05-25T20:25:26.112Z,5.10
2023-05-25T20:27:52.736Z,4.33
2023-05-25T20:30:19.669Z,5.00
2023-05-25T20:32:46.483Z,3.88
2023-05-25T20:35:13.688Z,4.32
2023-05-25T20:37:41.911Z,4.18
2023-05-25T20:40:09.145Z,3.97
2023-05-25T20:42:36.049Z,3.95
2023-05-25T20:45:02.864Z,4.05
2023-05-25T20:47:29.564Z,4.15
2023-05-25T20:49:56.298Z,4.45
2023-05-25T20:52:24.050Z,3.95
2023-05-25T20:54:50.747Z,3.92
2023-05-25T20:57:17.444Z,4.65
2023-05-25T20:59:44.065Z,4.10
2023-05-25T21:02:10.950Z,4.07
2023-05-25T21:04:37.629Z,4.65
2023-05-25T21:07:04.458Z,4.38
2023-05-25T21:09:31.275Z,5.70
2023-05-25T21:11:58.594Z,4.15
2023-05-25T21:14:25.357Z,3.80
2023-05-25T21:16:51.993Z,4.30
2023-05-25T21:19:18.634Z,3.80
2023-05-25T21:21:45.316Z,4.43
2023-05-25T21:24:12.035Z,4.17
2023-05-25T21:26:38.610Z,4.72
2023-05-25T21:29:05.321Z,4.82
2023-05-25T21:31:32.191Z,4.70
2023-05-25T21:34:00.087Z,4.47
2023-05-25T21:36:27.103Z,4.40
2023-05-25T21:38:53.758Z,4.50
2023-05-25T21:41:20.419Z,3.77
2023-05-25T21:43:47.052Z,4.15
2023-05-25T21:46:16.595Z,4.37
2023-05-25T21:48:43.543Z,4.30
2023-05-25T21:51:10.355Z,4.63
2023-05-25T21:53:36.973Z,4.63
2023-05-25T21:56:03.717Z,4.30
2023-05-25T21:58:30.334Z,4.53
2023-05-25T22:00:57.029Z,4.47
2023-05-25T22:03:23.698Z,4.23
2023-05-25T22:05:50.388Z,4.33
2023-05-25T22:08:17.108Z,4.13
2023-05-25T22:10:43.724Z,3.95
2023-05-25T22:13:10.355Z,4.20
2023-05-25T22:15:36.971Z,4.17
2023-05-25T22:18:03.792Z,4.33
2023-05-25T22:20:30.403Z,4.50
2023-05-25T22:22:57.145Z,4.57
2023-05-25T22:25:24.685Z,4.57
2023-05-25T22:27:51.329Z,3.90
2023-05-25T22:30:17.974Z,5.15
2023-05-25T22:32:44.678Z,4.90
2023-05-25T22:35:11.435Z,4.50
2023-05-25T22:37:38.064Z,4.40
2023-05-25T22:40:06.081Z,5.00
2023-05-25T22:42:32.779Z,4.70
2023-05-25T22:44:59.389Z,4.50
2023-05-25T22:47:26.094Z,4.43
2023-05-25T22:49:52.771Z,4.77
2023-05-25T22:52:19.570Z,4.70
2023-05-25T22:54:46.196Z,4.70
2023-05-25T22:57:12.895Z,5.43
2023-05-25T22:59:39.570Z,4.53
2023-05-25T23:02:06.646Z,4.40
2023-05-25T23:04:35.693Z,5.17
2023-05-25T23:07:02.672Z,4.37
2023-05-25T23:09:29.290Z,4.70
2023-05-25T23:11:55.957Z,5.17
2023-05-25T23:14:22.554Z,5.10
2023-05-25T23:16:49.283Z,5.20
2023-05-25T23:19:16.653Z,5.17
2023-05-25T23:21:43.590Z,5.07
2023-05-25T23:24:10.400Z,5.30
2023-05-25T23:26:37.042Z,5.20
2023-05-25T23:29:03.786Z,4.87
2023-05-25T23:31:30.597Z,5.27
2023-05-25T23:33:57.323Z,5.07
2023-05-25T23:36:26.152Z,5.27
2023-05-25T23:38:53.143Z,5.03
2023-05-25T23:41:19.807Z,5.03
2023-05-25T23:43:46.631Z,4.87
2023-05-25T23:46:16.168Z,5.50
2023-05-25T23:48:43.483Z,5.03
2023-05-25T23:51:10.595Z,4.90
2023-05-25T23:53:38.390Z,5.43
2023-05-25T23:56:05.226Z,4.60
2023-05-25T23:58:31.865Z,5.10
